Time;durP1;ratioP1;P1;durP2;ratioP2;P2;SDS_P1;SDS_P2;PMS_P1;PMS_P2;Temp;Humidity;BMP_temperature;BMP_pressure;BME280_temperature;BME280_humidity;BME280_pressure;Samples;Min_cycle;Max_cycle;Signal;HPM_P1;HPM_P2
2022/10/03 00:00:15;;;;;;;17.35;9.27;;;16.90;73.00;;;;;;7384362;19;20066;-85
2022/10/03 00:03:22;;;;;;;18.17;8.88;;;16.90;73.20;;;;;;7411481;19;20079;-83
2022/10/03 00:06:08;;;;;;;16.40;9.10;;;16.90;73.50;;;;;;7395337;19;20015;-84
2022/10/03 00:09:19;;;;;;;15.07;8.77;;;16.90;73.50;;;;;;7390623;19;20018;-83
2022/10/03 00:12:04;;;;;;;16.75;8.63;;;16.90;73.20;;;;;;7391281;19;20014;-84
2022/10/03 00:14:44;;;;;;;19.02;9.32;;;16.90;72.90;;;;;;7389271;19;20015;-84
2022/10/03 00:17:21;;;;;;;21.52;8.77;;;16.90;73.00;;;;;;7387281;19;20014;-83
2022/10/03 00:19:57;;;;;;;13.32;8.45;;;16.90;73.20;;;;;;7387082;19;20022;-83
2022/10/03 00:22:34;;;;;;;25.02;8.82;;;16.90;73.20;;;;;;7386939;19;20014;-84
2022/10/03 00:25:17;;;;;;;19.33;8.80;;;16.80;73.20;;;;;;7388136;19;20039;-83
2022/10/03 00:27:52;;;;;;;17.48;7.80;;;16.80;74.00;;;;;;7382105;19;20017;-83
2022/10/03 00:30:25;;;;;;;16.77;9.13;;;16.80;72.90;;;;;;7382168;19;20076;-83
2022/10/03 00:33:08;;;;;;;16.10;8.43;;;16.70;72.80;;;;;;7401113;19;20098;-83
2022/10/03 00:36:03;;;;;;;17.00;9.68;;;16.70;72.90;;;;;;7378422;19;20015;-84
2022/10/03 00:38:52;;;;;;;21.50;8.80;;;16.70;73.10;;;;;;7377356;19;20094;-84
2022/10/03 00:41:34;;;;;;;20.27;9.20;;;16.70;72.70;;;;;;7383516;19;20517;-83
2022/10/03 00:44:32;;;;;;;19.55;8.60;;;16.60;72.60;;;;;;7389746;19;20031;-85
2022/10/03 00:47:23;;;;;;;15.07;9.00;;;16.60;72.50;;;;;;7395818;19;20021;-85
2022/10/03 00:50:32;;;;;;;21.23;10.23;;;16.60;71.80;;;;;;7395720;19;20015;-85
2022/10/03 00:53:40;;;;;;;16.55;9.27;;;16.50;72.00;;;;;;7392300;19;20022;-86
2022/10/03 00:56:37;;;;;;;15.93;9.63;;;16.50;72.10;;;;;;7389095;19;20401;-85
2022/10/03 00:59:24;;;;;;;25.42;10.48;;;16.40;71.50;;;;;;7379544;19;20051;-83
2022/10/03 01:01:53;;;;;;;25.88;11.13;;;16.40;72.20;;;;;;7378417;19;20028;-83
2022/10/03 01:04:39;;;;;;;23.52;9.52;;;16.40;72.10;;;;;;7379046;19;20367;-83
2022/10/03 01:07:19;;;;;;;20.65;10.30;;;16.30;72.40;;;;;;7379968;19;20034;-84
2022/10/03 01:10:03;;;;;;;16.60;9.30;;;16.30;72.50;;;;;;7379644;19;20011;-83
2022/10/03 01:12:53;;;;;;;21.80;9.73;;;16.30;71.80;;;;;;7380001;19;20044;-83
2022/10/03 01:15:33;;;;;;;24.50;10.07;;;16.30;71.60;;;;;;7378982;19;20007;-83
2022/10/03 01:18:15;;;;;;;24.48;9.35;;;16.20;71.90;;;;;;7392033;19;20015;-83
2022/10/03 01:20:56;;;;;;;17.98;8.93;;;16.20;71.80;;;;;;7409246;19;20082;-83
2022/10/03 01:23:54;;;;;;;63.67;11.30;;;16.20;72.10;;;;;;7382878;19;20014;-83
2022/10/03 01:26:48;;;;;;;36.80;10.88;;;16.20;71.70;;;;;;7379773;19;20018;-83
2022/10/03 01:32:10;;;;;;;53.45;12.23;;;16.10;71.70;;;;;;7379556;19;20092;-83
2022/10/03 01:34:44;;;;;;;23.85;11.50;;;16.00;71.80;;;;;;7383890;19;20074;-83
2022/10/03 01:37:21;;;;;;;24.08;11.10;;;16.00;72.40;;;;;;7385813;19;20021;-83
2022/10/03 01:39:55;;;;;;;34.33;11.13;;;16.00;72.30;;;;;;7384796;19;20010;-83
2022/10/03 01:42:39;;;;;;;33.08;11.25;;;16.00;71.90;;;;;;7386777;19;20035;-83
2022/10/03 01:45:25;;;;;;;36.72;10.80;;;15.90;71.90;;;;;;7386569;19;20006;-83
2022/10/03 01:48:01;;;;;;;22.92;9.57;;;15.80;72.10;;;;;;7411510;19;20019;-83
2022/10/03 01:50:36;;;;;;;23.27;9.23;;;15.80;72.40;;;;;;7388810;19;20015;-83
2022/10/03 01:53:12;;;;;;;27.48;9.50;;;15.90;72.40;;;;;;7391841;19;20043;-85
2022/10/03 01:55:51;;;;;;;25.55;10.10;;;15.90;72.40;;;;;;7390788;19;20035;-84
2022/10/03 01:58:33;;;;;;;31.33;9.63;;;15.90;72.00;;;;;;7385173;19;20031;-84
2022/10/03 02:01:11;;;;;;;22.88;9.23;;;15.90;72.00;;;;;;7382859;19;20360;-84
2022/10/03 02:03:48;;;;;;;22.23;8.77;;;15.90;72.10;;;;;;7385748;19;20014;-83
2022/10/03 02:06:26;;;;;;;19.20;9.55;;;15.90;71.90;;;;;;7384677;19;20340;-85
2022/10/03 02:09:02;;;;;;;22.08;10.43;;;15.90;71.80;;;;;;7407427;19;20029;-84
2022/10/03 02:11:37;;;;;;;42.65;10.32;;;15.90;72.70;;;;;;7384501;19;20035;-85
2022/10/03 02:14:23;;;;;;;22.73;10.45;;;15.90;71.60;;;;;;7383660;19;20330;-84
2022/10/03 02:17:06;;;;;;;17.88;10.15;;;15.90;71.80;;;;;;7382142;19;20035;-84
2022/10/03 02:19:47;;;;;;;20.20;10.00;;;15.80;71.70;;;;;;7383896;19;20028;-84
2022/10/03 02:22:29;;;;;;;21.30;9.75;;;15.80;71.80;;;;;;7382478;19;20010;-84
2022/10/03 02:25:20;;;;;;;19.52;9.65;;;15.90;71.90;;;;;;7381398;19;20458;-84
2022/10/03 02:28:29;;;;;;;18.00;9.33;;;15.80;71.80;;;;;;7388200;19;20023;-85
2022/10/03 02:31:27;;;;;;;17.13;8.27;;;15.90;71.90;;;;;;7391267;19;20011;-86
2022/10/03 02:34:27;;;;;;;80.07;10.35;;;15.80;71.50;;;;;;7385324;19;20130;-86
2022/10/03 02:37:20;;;;;;;114.72;12.57;;;15.80;71.20;;;;;;7382297;19;20082;-87
2022/10/03 02:40:28;;;;;;;69.72;11.48;;;15.80;71.40;;;;;;7380437;19;20023;-86
2022/10/03 02:43:22;;;;;;;20.00;10.02;;;15.70;71.50;;;;;;7380415;19;20021;-86
2022/10/03 02:46:11;;;;;;;19.48;9.48;;;15.70;71.90;;;;;;7380726;19;20011;-87
2022/10/03 02:49:06;;;;;;;63.33;9.55;;;15.70;72.00;;;;;;7382155;19;20014;-86
2022/10/03 02:51:53;;;;;;;42.33;9.05;;;15.70;71.90;;;;;;7379959;19;20011;-85
2022/10/03 02:55:03;;;;;;;13.55;8.27;;;15.60;71.90;;;;;;7383506;19;20030;-85
2022/10/03 02:58:10;;;;;;;13.10;7.78;;;15.60;72.50;;;;;;7384115;19;20014;-85
2022/10/03 03:01:16;;;;;;;30.10;8.35;;;15.60;72.70;;;;;;7384941;19;20021;-87
2022/10/03 03:04:21;;;;;;;14.32;7.78;;;15.70;72.90;;;;;;7388186;19;20055;-87
2022/10/03 03:07:29;;;;;;;15.70;7.30;;;15.70;72.50;;;;;;7394798;19;20841;-86
2022/10/03 03:10:29;;;;;;;15.25;8.10;;;15.70;72.70;;;;;;7389400;19;20031;-86
2022/10/03 03:13:27;;;;;;;35.00;9.68;;;15.60;72.20;;;;;;7383833;19;20018;-86
2022/10/03 03:16:47;;;;;;;23.10;8.60;;;15.60;72.50;;;;;;7383864;19;20051;-87
2022/10/03 03:19:32;;;;;;;22.55;9.18;;;15.60;72.50;;;;;;7384275;19;20006;-85
2022/10/03 03:22:11;;;;;;;21.88;8.77;;;15.60;72.70;;;;;;7382818;19;20011;-85
2022/10/03 03:25:03;;;;;;;37.40;9.20;;;15.60;73.10;;;;;;7380843;19;20022;-85
2022/10/03 03:27:45;;;;;;;;;;;15.60;73.20;;;;;;7379649;19;20031;-85
2022/10/03 03:30:17;;;;;;;15.43;9.13;;;15.70;73.30;;;;;;7378077;19;19922;-86
2022/10/03 03:32:57;;;;;;;22.77;10.38;;;15.60;72.90;;;;;;7402531;19;20311;-86
2022/10/03 03:35:36;;;;;;;21.65;9.90;;;15.60;73.00;;;;;;7381174;19;20019;-86
2022/10/03 03:38:16;;;;;;;18.15;9.25;;;15.60;73.10;;;;;;7380594;19;20074;-86
2022/10/03 03:41:05;;;;;;;23.45;9.10;;;15.60;73.00;;;;;;7385848;19;20028;-86
2022/10/03 03:43:58;;;;;;;17.33;7.88;;;15.60;73.00;;;;;;7388290;19;20022;-86
2022/10/03 03:46:37;;;;;;;16.80;7.57;;;15.70;73.00;;;;;;7383125;19;20129;-86
2022/10/03 03:49:20;;;;;;;20.40;9.05;;;15.70;73.10;;;;;;7381013;19;20014;-86
2022/10/03 03:52:01;;;;;;;16.45;8.73;;;15.70;72.80;;;;;;7378607;19;20055;-86
2022/10/03 03:54:53;;;;;;;22.30;7.55;;;15.70;72.60;;;;;;7380683;19;20014;-87
2022/10/03 03:57:48;;;;;;;19.30;8.30;;;15.80;72.80;;;;;;7378783;19;20011;-84
2022/10/03 04:00:22;;;;;;;15.32;7.20;;;15.80;72.70;;;;;;7379374;19;20090;-84
2022/10/03 04:03:06;;;;;;;18.27;8.75;;;15.90;72.70;;;;;;7404631;19;20018;-84
2022/10/03 04:05:49;;;;;;;20.80;7.90;;;15.90;73.80;;;;;;7389672;19;20437;-84
2022/10/03 04:08:45;;;;;;;11.90;7.18;;;15.90;72.80;;;;;;7387986;19;20018;-84
2022/10/03 04:11:27;;;;;;;23.83;8.13;;;15.90;72.60;;;;;;7381131;19;20037;-85
2022/10/03 04:14:29;;;;;;;14.60;7.70;;;15.90;72.50;;;;;;7380075;19;20011;-85
2022/10/03 04:20:13;;;;;;;13.65;7.25;;;15.90;72.60;;;;;;7381349;19;20022;-85
2022/10/03 04:23:04;;;;;;;17.73;9.27;;;16.00;73.00;;;;;;7381280;19;20083;-84
2022/10/03 04:25:55;;;;;;;16.27;8.20;;;15.90;72.60;;;;;;7380945;19;20074;-86
2022/10/03 04:28:47;;;;;;;17.05;8.30;;;15.90;72.90;;;;;;7382991;19;20022;-86
2022/10/03 04:31:30;;;;;;;21.60;7.70;;;15.90;73.10;;;;;;7381530;19;20038;-85
2022/10/03 04:34:17;;;;;;;12.10;7.78;;;16.00;73.50;;;;;;7379676;19;20029;-86
2022/10/03 04:37:02;;;;;;;15.60;7.45;;;16.00;73.60;;;;;;7380344;19;20031;-86
2022/10/03 04:39:39;;;;;;;11.52;7.63;;;16.00;73.40;;;;;;7382246;19;20066;-86
2022/10/03 04:42:18;;;;;;;13.60;7.20;;;16.10;73.50;;;;;;7378367;19;20018;-86
2022/10/03 04:45:04;;;;;;;13.73;7.60;;;16.10;73.60;;;;;;7400807;19;20027;-85
2022/10/03 04:47:45;;;;;;;18.25;8.35;;;16.10;73.60;;;;;;7384260;19;20018;-86
2022/10/03 04:50:27;;;;;;;16.80;7.93;;;16.10;73.60;;;;;;7387561;19;20030;-86
2022/10/03 04:53:07;;;;;;;17.80;8.40;;;16.20;73.60;;;;;;7382553;19;20014;-86
2022/10/03 04:55:43;;;;;;;16.67;8.05;;;16.20;73.40;;;;;;7380057;19;20030;-86
2022/10/03 04:58:25;;;;;;;20.63;8.80;;;16.20;73.40;;;;;;7379479;19;20031;-86
2022/10/03 05:01:07;;;;;;;27.95;11.00;;;16.20;73.80;;;;;;7383192;19;20042;-86
2022/10/03 05:03:47;;;;;;;25.80;10.68;;;16.20;74.00;;;;;;7384724;19;20624;-87
2022/10/03 05:06:40;;;;;;;32.85;9.43;;;16.10;74.40;;;;;;7383628;19;20039;-86
2022/10/03 05:09:23;;;;;;;25.70;9.85;;;16.20;75.00;;;;;;7381853;19;20010;-86
2022/10/03 05:12:05;;;;;;;23.48;9.68;;;16.20;74.90;;;;;;7409834;19;20015;-86
2022/10/03 05:14:51;;;;;;;25.65;9.70;;;16.20;74.90;;;;;;7386518;19;20018;-87
2022/10/03 05:17:24;;;;;;;31.65;10.00;;;16.20;74.90;;;;;;7386860;19;20031;-86
2022/10/03 05:20:15;;;;;;;27.33;10.50;;;16.30;75.00;;;;;;7385268;19;20018;-85
2022/10/03 05:22:52;;;;;;;72.55;12.32;;;16.30;75.10;;;;;;7386628;19;20107;-86
2022/10/03 05:25:29;;;;;;;47.22;14.68;;;16.30;75.30;;;;;;7392094;19;20023;-86
2022/10/03 05:28:09;;;;;;;107.75;16.02;;;16.30;75.80;;;;;;7395456;19;20022;-83
2022/10/03 05:30:48;;;;;;;40.53;14.57;;;16.30;76.30;;;;;;7387282;19;20066;-84
2022/10/03 05:33:26;;;;;;;64.78;17.17;;;16.20;76.60;;;;;;7387791;19;20026;-84
2022/10/03 05:36:14;;;;;;;35.60;13.73;;;16.30;76.90;;;;;;7407542;19;20029;-84
2022/10/03 05:39:16;;;;;;;37.67;14.20;;;16.30;77.10;;;;;;7387452;19;20019;-84
2022/10/03 05:41:55;;;;;;;42.08;14.25;;;16.30;77.10;;;;;;7388073;19;20027;-85
2022/10/03 05:44:34;;;;;;;38.70;14.88;;;16.30;76.90;;;;;;7397070;19;20010;-84
2022/10/03 05:47:43;;;;;;;30.42;13.65;;;16.30;76.90;;;;;;7393552;19;20018;-84
2022/10/03 05:50:27;;;;;;;37.45;14.13;;;16.30;76.80;;;;;;7388546;19;20030;-84
2022/10/03 05:53:23;;;;;;;35.85;14.40;;;16.30;76.90;;;;;;7388412;19;20372;-84
2022/10/03 05:56:05;;;;;;;32.83;13.82;;;16.30;76.90;;;;;;7395516;19;20015;-85
2022/10/03 05:59:13;;;;;;;35.03;13.85;;;16.30;76.80;;;;;;7409924;19;20026;-87
2022/10/03 06:02:16;;;;;;;32.60;14.15;;;16.30;76.90;;;;;;7409103;19;20011;-87
2022/10/03 06:05:08;;;;;;;33.28;15.18;;;16.30;76.80;;;;;;7397248;19;20695;-85
2022/10/03 06:07:50;;;;;;;35.97;14.60;;;16.30;76.70;;;;;;7387630;19;20022;-87
2022/10/03 06:10:44;;;;;;;50.88;15.55;;;16.30;76.90;;;;;;7388663;19;20476;-87
2022/10/03 06:13:21;;;;;;;32.65;15.05;;;16.30;77.20;;;;;;7385650;19;20014;-86
2022/10/03 06:15:59;;;;;;;32.47;15.30;;;16.30;76.80;;;;;;7385133;19;20025;-86
2022/10/03 06:19:05;;;;;;;28.10;14.25;;;16.20;76.60;;;;;;7383974;19;20081;-85
2022/10/03 06:22:16;;;;;;;29.05;13.55;;;16.20;76.50;;;;;;7380384;19;20039;-86
2022/10/03 06:25:10;;;;;;;29.17;13.77;;;16.20;76.10;;;;;;7383433;19;20014;-86
2022/10/03 06:28:10;;;;;;;40.58;14.00;;;16.20;75.80;;;;;;7380189;19;20029;-86
2022/10/03 06:30:59;;;;;;;26.67;14.10;;;16.10;75.60;;;;;;7379641;19;20031;-85
2022/10/03 06:34:11;;;;;;;26.67;13.43;;;16.10;75.50;;;;;;7382446;19;20366;-85
2022/10/03 06:37:10;;;;;;;25.88;13.77;;;16.10;75.40;;;;;;7381442;19;20019;-85
2022/10/03 06:40:13;;;;;;;27.88;13.25;;;16.00;75.00;;;;;;7389471;19;20018;-85
2022/10/03 06:43:24;;;;;;;22.60;11.90;;;16.00;75.20;;;;;;7385797;19;20087;-85
2022/10/03 06:46:32;;;;;;;23.88;11.68;;;16.00;75.20;;;;;;7383655;19;20018;-85
2022/10/03 06:49:24;;;;;;;16.00;9.60;;;16.00;75.00;;;;;;7386616;19;20340;-84
2022/10/03 06:52:38;;;;;;;16.35;9.40;;;16.00;74.70;;;;;;7387033;19;20026;-83
2022/10/03 06:58:48;;;;;;;15.20;9.23;;;16.00;74.70;;;;;;7360331;19;20007;-88
2022/10/03 07:01:56;;;;;;;11.68;7.68;;;16.00;74.60;;;;;;7422271;19;20006;-89
2022/10/03 07:13:41;;;;;;;20.77;7.97;;;16.00;74.40;;;;;;7349241;19;20010;-91
2022/10/03 07:16:32;;;;;;;23.20;7.82;;;16.00;74.40;;;;;;7397473;19;20011;-90
2022/10/03 07:19:21;;;;;;;27.52;9.50;;;16.00;74.80;;;;;;7391280;19;20021;-87
2022/10/03 07:25:20;;;;;;;19.48;8.25;;;16.10;75.80;;;;;;7399908;19;20018;-87
2022/10/03 07:28:14;;;;;;;17.90;8.35;;;16.10;74.90;;;;;;7393416;19;20021;-89
2022/10/03 07:31:04;;;;;;;23.17;7.70;;;16.10;74.90;;;;;;7390118;19;20010;-90
2022/10/03 07:34:10;;;;;;;12.98;7.32;;;16.20;74.60;;;;;;7387624;19;20026;-89
2022/10/03 07:40:21;;;;;;;12.73;8.00;;;16.20;74.70;;;;;;7385746;19;20014;-82
2022/10/03 07:43:27;;;;;;;15.15;8.60;;;16.20;74.50;;;;;;7377789;19;20011;-82
2022/10/03 07:46:31;;;;;;;13.10;8.70;;;16.20;74.90;;;;;;7376660;19;20026;-85
2022/10/03 07:49:21;;;;;;;13.98;8.18;;;16.30;75.20;;;;;;7380565;19;20015;-87
2022/10/03 07:52:09;;;;;;;14.70;8.23;;;16.30;74.70;;;;;;7384638;19;20017;-85
2022/10/03 07:55:02;;;;;;;15.57;9.15;;;16.40;74.70;;;;;;7384654;19;20025;-87
2022/10/03 07:57:57;;;;;;;19.20;10.10;;;16.40;74.70;;;;;;7384744;19;20469;-83
2022/10/03 08:00:35;;;;;;;22.15;10.23;;;16.40;74.70;;;;;;7386111;19;20035;-87
2022/10/03 08:03:45;;;;;;;20.58;10.63;;;16.40;74.40;;;;;;7378864;19;20385;-85
2022/10/03 08:06:25;;;;;;;21.00;11.70;;;16.40;74.80;;;;;;7381956;19;20029;-84
2022/10/03 08:09:24;;;;;;;22.80;12.23;;;16.50;74.70;;;;;;7406352;19;20022;-85
2022/10/03 08:12:22;;;;;;;118.78;16.48;;;16.50;74.90;;;;;;7385831;19;20040;-85
2022/10/03 08:15:03;;;;;;;23.10;12.00;;;16.50;75.00;;;;;;7388176;19;20006;-84
2022/10/03 08:18:08;;;;;;;25.98;12.13;;;16.50;75.20;;;;;;7387584;19;20010;-82
2022/10/03 08:21:04;;;;;;;23.83;11.98;;;16.50;75.10;;;;;;7379326;19;20015;-81
2022/10/03 08:24:11;;;;;;;24.52;11.25;;;16.60;75.00;;;;;;7380442;19;20094;-83
2022/10/03 08:27:13;;;;;;;20.15;10.98;;;16.60;74.70;;;;;;7377125;19;20031;-83
2022/10/03 08:30:06;;;;;;;17.30;10.20;;;16.60;74.90;;;;;;7373223;19;20119;-83
2022/10/03 08:33:05;;;;;;;22.05;10.70;;;16.70;74.80;;;;;;7376174;19;20022;-82
2022/10/03 08:35:56;;;;;;;23.70;11.65;;;16.70;74.40;;;;;;7380300;19;20086;-82
2022/10/03 08:38:58;;;;;;;19.45;11.48;;;16.70;73.80;;;;;;7375031;19;20101;-82
2022/10/03 08:41:42;;;;;;;;;;;16.70;73.90;;;;;;7370833;19;20655;-80
2022/10/03 08:44:46;;;;;;;24.45;11.98;;;16.70;74.10;;;;;;7380418;19;19926;-81
2022/10/03 08:47:50;;;;;;;25.40;13.38;;;16.70;75.30;;;;;;7379679;19;20022;-81
2022/10/03 08:50:39;;;;;;;24.95;13.40;;;16.70;74.10;;;;;;7378211;19;20020;-82
2022/10/03 08:53:35;;;;;;;28.63;15.35;;;16.70;74.20;;;;;;7377436;19;20014;-80
2022/10/03 08:56:10;;;;;;;26.52;14.48;;;16.70;74.50;;;;;;7380804;19;20014;-81
2022/10/03 08:59:00;;;;;;;23.48;13.80;;;16.80;74.20;;;;;;7379166;19;20018;-80
2022/10/03 09:02:15;;;;;;;24.63;13.73;;;16.80;74.20;;;;;;7376519;19;20015;-80
2022/10/03 09:05:28;;;;;;;25.42;14.15;;;16.80;74.20;;;;;;7376992;19;20011;-80
2022/10/03 09:08:25;;;;;;;27.08;15.55;;;16.80;74.40;;;;;;7376350;19;20025;-82
2022/10/03 09:11:24;;;;;;;26.10;14.93;;;16.80;74.20;;;;;;7378702;19;20171;-80
2022/10/03 09:14:33;;;;;;;28.15;15.07;;;16.90;74.20;;;;;;7378833;19;20090;-80
2022/10/03 09:17:22;;;;;;;27.70;14.68;;;16.90;74.20;;;;;;7377068;19;20040;-80
2022/10/03 09:20:21;;;;;;;25.92;13.52;;;16.90;74.40;;;;;;7374534;19;20040;-80
2022/10/03 09:23:23;;;;;;;28.83;13.93;;;16.90;74.30;;;;;;7374007;19;20021;-80
2022/10/03 09:26:23;;;;;;;27.10;14.27;;;16.90;74.20;;;;;;7376362;19;20374;-80
2022/10/03 09:29:17;;;;;;;28.27;14.68;;;16.90;74.20;;;;;;7379146;19;20024;-81
2022/10/03 09:32:19;;;;;;;28.90;13.82;;;16.90;74.20;;;;;;7377666;19;20925;-79
2022/10/03 09:35:19;;;;;;;20.85;12.43;;;17.00;74.40;;;;;;7376658;19;20078;-82
2022/10/03 09:38:32;;;;;;;24.00;13.02;;;17.00;74.50;;;;;;7376106;19;20390;-79
2022/10/03 09:41:36;;;;;;;25.20;13.35;;;17.00;74.40;;;;;;7378144;19;20011;-81
2022/10/03 09:44:28;;;;;;;24.73;13.60;;;17.00;73.80;;;;;;7376782;19;20022;-84
2022/10/03 09:47:41;;;;;;;21.83;13.38;;;17.00;73.90;;;;;;7381273;19;20099;-81
2022/10/03 09:50:40;;;;;;;25.20;14.43;;;17.00;73.90;;;;;;7377980;19;20469;-80
2022/10/03 09:53:38;;;;;;;33.55;15.32;;;17.00;73.60;;;;;;7378011;19;20023;-80
2022/10/03 09:56:40;;;;;;;24.90;14.63;;;17.00;73.10;;;;;;7378781;19;20022;-80
2022/10/03 09:59:35;;;;;;;25.10;14.55;;;17.00;73.50;;;;;;7377345;19;20018;-80
2022/10/03 10:02:19;;;;;;;27.80;14.45;;;17.00;73.30;;;;;;7379887;19;20381;-81
2022/10/03 10:05:02;;;;;;;25.42;14.05;;;17.00;73.30;;;;;;7378294;19;20098;-79
2022/10/03 10:08:03;;;;;;;27.15;14.85;;;17.00;73.30;;;;;;7375658;19;20033;-79
2022/10/03 10:11:01;;;;;;;24.58;13.68;;;17.00;73.50;;;;;;7375502;19;20516;-78
2022/10/03 10:14:02;;;;;;;22.00;12.68;;;17.10;73.50;;;;;;7377415;19;20022;-83
2022/10/03 10:17:08;;;;;;;22.75;12.90;;;17.10;73.50;;;;;;7375951;19;20553;-80
2022/10/03 10:19:52;;;;;;;25.95;14.07;;;17.20;73.20;;;;;;7375837;19;20370;-81
2022/10/03 10:22:55;;;;;;;24.52;13.60;;;17.30;72.60;;;;;;7371264;19;20077;-78
2022/10/03 10:26:15;;;;;;;25.40;14.80;;;17.30;72.30;;;;;;7372836;19;20014;-81
2022/10/03 10:29:19;;;;;;;24.38;14.27;;;17.30;72.30;;;;;;7373591;19;20042;-82
2022/10/03 10:32:17;;;;;;;23.45;14.38;;;17.30;72.70;;;;;;7376831;19;20460;-82
2022/10/03 10:35:16;;;;;;;26.08;14.48;;;17.30;72.10;;;;;;7374055;19;20031;-82
2022/10/03 10:38:20;;;;;;;28.00;16.17;;;17.30;72.40;;;;;;7382407;19;20007;-84
2022/10/03 10:41:36;;;;;;;25.60;15.52;;;17.30;72.70;;;;;;7387274;19;20010;-84
2022/10/03 10:44:57;;;;;;;27.08;15.60;;;17.30;72.70;;;;;;7379112;19;20468;-87
2022/10/03 10:47:57;;;;;;;28.80;16.85;;;17.30;72.80;;;;;;7382448;19;20018;-84
2022/10/03 10:50:56;;;;;;;28.70;16.60;;;17.30;72.80;;;;;;7387845;19;20212;-84
2022/10/03 10:53:55;;;;;;;24.42;14.23;;;17.30;72.70;;;;;;7390459;19;20026;-84
2022/10/03 10:56:47;;;;;;;31.05;15.30;;;17.30;72.50;;;;;;7387463;19;20014;-84
2022/10/03 10:59:58;;;;;;;36.63;16.40;;;17.30;72.40;;;;;;7385261;19;20023;-85
2022/10/03 11:03:04;;;;;;;27.52;15.63;;;17.30;72.70;;;;;;7385747;19;20008;-85
2022/10/03 11:05:57;;;;;;;29.83;15.90;;;17.30;72.60;;;;;;7386631;19;20075;-85
2022/10/03 11:08:58;;;;;;;27.75;16.40;;;17.40;72.10;;;;;;7383427;19;20026;-85
2022/10/03 11:12:12;;;;;;;31.75;15.63;;;17.40;72.20;;;;;;7380345;19;20023;-85
2022/10/03 11:15:11;;;;;;;28.95;16.48;;;17.40;71.90;;;;;;7381421;19;20027;-85
2022/10/03 11:18:17;;;;;;;29.35;16.55;;;17.40;72.20;;;;;;7390633;19;20014;-85
2022/10/03 11:21:28;;;;;;;30.30;17.02;;;17.40;72.20;;;;;;7377531;19;20026;-85
2022/10/03 11:24:22;;;;;;;29.65;15.30;;;17.40;72.30;;;;;;7272608;19;2004535;-85
2022/10/03 11:27:29;;;;;;;30.20;15.38;;;17.50;72.70;;;;;;7397720;19;20017;-88
2022/10/03 11:30:23;;;;;;;25.55;15.07;;;17.50;72.70;;;;;;7277937;19;2004757;-86
2022/10/03 11:33:29;;;;;;;25.92;15.07;;;17.50;72.40;;;;;;7402626;19;20031;-85
2022/10/03 11:36:40;;;;;;;32.22;17.50;;;17.50;73.00;;;;;;7272994;19;2004480;-81
2022/10/03 11:39:14;;;;;;;28.52;16.08;;;17.60;72.30;;;;;;7373012;19;20054;-82
2022/10/03 11:41:53;;;;;;;34.58;16.67;;;17.70;72.10;;;;;;7398850;19;20067;-83
2022/10/03 11:44:26;;;;;;;34.92;16.63;;;17.70;72.10;;;;;;7371673;19;20024;-82
2022/10/03 11:47:16;;;;;;;31.48;15.93;;;17.70;71.90;;;;;;7373376;19;20023;-84
2022/10/03 11:50:15;;;;;;;26.38;15.93;;;17.70;71.80;;;;;;7373714;19;20021;-88
2022/10/03 17:56:47;;;;;;;21.85;10.60;;;16.50;73.30;;;;;;7294008;19;20115;-90
2022/10/03 18:00:05;;;;;;;21.95;11.82;;;16.40;72.50;;;;;;7383990;19;20014;-87
2022/10/03 18:02:55;;;;;;;37.88;11.88;;;16.30;72.50;;;;;;7394136;19;20426;-86
2022/10/03 18:38:47;;;;;;;23.13;12.07;;;16.00;72.90;;;;;;7376619;19;20054;-89
2022/10/03 18:41:18;;;;;;;24.25;11.15;;;16.00;72.70;;;;;;7423388;19;20025;-87
2022/10/03 19:04:40;;;;;;;23.08;10.65;;;15.90;72.30;;;;;;7278969;19;20138;-87
2022/10/03 20:40:36;;;;;;;25.90;14.23;;;15.20;71.00;;;;;;7319113;19;20002;-90
2022/10/03 20:43:36;;;;;;;33.60;15.13;;;15.10;71.10;;;;;;7406216;19;20014;-90
2022/10/03 20:54:04;;;;;;;31.95;15.65;;;15.00;71.20;;;;;;7430355;19;20031;-90
2022/10/03 20:57:01;;;;;;;30.08;15.32;;;15.00;71.00;;;;;;7368013;19;20014;-91
2022/10/03 21:07:38;;;;;;;24.83;13.48;;;15.00;71.00;;;;;;7290528;19;20036;-91
2022/10/03 21:12:55;;;;;;;24.15;12.88;;;15.00;70.80;;;;;;7350520;19;19999;-90
2022/10/03 21:15:42;;;;;;;26.25;13.60;;;15.00;70.70;;;;;;7403942;19;20005;-91
2022/10/03 21:23:53;;;;;;;28.80;12.57;;;15.00;70.40;;;;;;7321442;19;20022;-90
2022/10/03 21:29:45;;;;;;;21.20;12.43;;;14.90;69.80;;;;;;7344173;19;20124;-86
2022/10/03 21:33:00;;;;;;;24.60;13.45;;;14.90;69.90;;;;;;7396975;19;20011;-88
2022/10/03 21:42:58;;;;;;;21.60;12.25;;;14.90;70.00;;;;;;7413361;19;20344;-88
2022/10/03 21:46:17;;;;;;;20.55;12.55;;;14.90;70.00;;;;;;7189811;19;2004330;-89
2022/10/03 21:49:39;;;;;;;24.77;13.13;;;14.90;69.90;;;;;;7276973;19;20078;-89
2022/10/03 21:58:56;;;;;;;23.77;13.25;;;14.90;69.70;;;;;;7391053;19;20090;-90
2022/10/03 22:05:32;;;;;;;22.90;13.15;;;14.80;70.20;;;;;;7415450;19;20010;-90
2022/10/03 22:08:35;;;;;;;25.30;12.85;;;14.80;70.30;;;;;;7398840;19;20015;-92
2022/10/03 22:11:21;;;;;;;25.83;14.20;;;14.80;70.20;;;;;;7411299;19;20007;-91
2022/10/03 22:14:40;;;;;;;25.38;13.45;;;14.80;70.10;;;;;;7409314;19;20010;-90
2022/10/03 22:17:30;;;;;;;31.83;14.10;;;14.70;70.50;;;;;;7409545;19;20021;-90
